Time;durP1;ratioP1;P1;durP2;ratioP2;P2;SDS_P1;SDS_P2;PMS_P1;PMS_P2;Temp;Humidity;BMP_temperature;BMP_pressure;BME280_temperature;BME280_humidity;BME280_pressure;Samples;Min_cycle;Max_cycle;Signal;HPM_P1;HPM_P2
2020/12/29 00:01:33;;;;;;;16.58;8.30;;;5.00;92.30;;;;;;4883500;29;20036;-91
2020/12/29 00:03:59;;;;;;;14.17;7.17;;;5.00;92.30;;;;;;4883558;29;20491;-92
2020/12/29 00:06:25;;;;;;;14.93;7.20;;;5.00;92.40;;;;;;4883566;29;20028;-92
2020/12/29 00:08:50;;;;;;;14.37;7.07;;;5.00;92.30;;;;;;4883596;29;20112;-91
2020/12/29 00:11:16;;;;;;;15.10;6.90;;;5.00;92.30;;;;;;4883652;29;20453;-91
2020/12/29 00:13:42;;;;;;;14.60;6.97;;;5.00;92.30;;;;;;4883401;29;20491;-92
2020/12/29 00:16:07;;;;;;;15.37;7.00;;;5.00;92.30;;;;;;4883555;29;20024;-92
2020/12/29 00:18:35;;;;;;;14.80;6.70;;;5.00;92.30;;;;;;4883450;29;20116;-91
2020/12/29 00:21:01;;;;;;;15.70;7.00;;;5.10;92.30;;;;;;4883248;29;20497;-91
2020/12/29 00:23:27;;;;;;;16.70;6.60;;;5.10;92.30;;;;;;4883390;29;20111;-90
2020/12/29 00:25:52;;;;;;;14.30;6.87;;;5.10;92.30;;;;;;4883616;29;20474;-89
2020/12/29 00:28:18;;;;;;;14.43;6.67;;;5.10;92.20;;;;;;4883153;29;20024;-91
2020/12/29 00:30:43;;;;;;;14.27;6.60;;;5.10;92.20;;;;;;4883109;29;20033;-91
2020/12/29 00:33:09;;;;;;;14.10;6.33;;;5.00;92.20;;;;;;4883510;29;20039;-91
2020/12/29 00:35:34;;;;;;;14.40;6.40;;;5.10;92.30;;;;;;4883821;29;20057;-92
2020/12/29 00:38:00;;;;;;;13.93;5.93;;;5.00;92.20;;;;;;4884211;29;20043;-91
2020/12/29 00:40:25;;;;;;;15.10;6.20;;;5.10;92.30;;;;;;4895499;29;20036;-90
2020/12/29 00:42:51;;;;;;;14.63;6.67;;;5.00;92.30;;;;;;4884641;29;20028;-93
2020/12/29 00:45:17;;;;;;;13.20;6.50;;;5.00;92.20;;;;;;4882996;29;20039;-91
2020/12/29 00:47:42;;;;;;;14.77;6.13;;;5.10;92.30;;;;;;4882770;29;20036;-91
2020/12/29 00:50:08;;;;;;;13.60;6.37;;;5.00;92.20;;;;;;4882122;29;20031;-89
2020/12/29 00:52:33;;;;;;;15.27;6.73;;;5.10;92.30;;;;;;4882889;29;20119;-90
2020/12/29 00:54:59;;;;;;;13.97;6.53;;;5.00;92.20;;;;;;4883015;29;20155;-90
2020/12/29 00:57:24;;;;;;;14.80;6.63;;;5.10;92.20;;;;;;4883019;29;20043;-89
2020/12/29 00:59:50;;;;;;;17.47;6.57;;;5.10;92.20;;;;;;4882217;29;20084;-90
2020/12/29 01:02:15;;;;;;;14.10;6.07;;;5.00;92.20;;;;;;4882588;29;20047;-90
2020/12/29 01:04:41;;;;;;;13.60;5.83;;;5.00;92.20;;;;;;4882970;29;20036;-89
2020/12/29 01:07:06;;;;;;;13.97;6.33;;;5.00;92.30;;;;;;4882619;29;20052;-90
2020/12/29 01:09:32;;;;;;;13.23;5.83;;;5.00;92.30;;;;;;4883390;29;20025;-90
2020/12/29 01:11:57;;;;;;;13.23;6.13;;;5.00;92.30;;;;;;4882852;29;20052;-91
2020/12/29 01:14:23;;;;;;;13.80;5.60;;;4.90;92.20;;;;;;4882783;29;20037;-90
2020/12/29 01:16:49;;;;;;;13.93;6.37;;;4.90;92.30;;;;;;4882550;29;20061;-89
2020/12/29 01:19:15;;;;;;;13.20;6.10;;;4.90;92.30;;;;;;4882511;29;20032;-89
2020/12/29 01:21:40;;;;;;;13.00;5.37;;;4.90;92.30;;;;;;4882427;29;20033;-89
2020/12/29 01:24:06;;;;;;;12.80;5.63;;;4.90;92.30;;;;;;4882347;29;20033;-89
2020/12/29 01:26:31;;;;;;;14.23;6.50;;;5.00;92.30;;;;;;4882779;29;20036;-90
2020/12/29 01:28:57;;;;;;;14.03;6.00;;;5.00;92.30;;;;;;4898789;29;20064;-89
2020/12/29 01:31:30;;;;;;;14.80;6.40;;;5.00;92.30;;;;;;4899230;29;20060;-89
2020/12/29 01:33:58;;;;;;;13.27;5.50;;;4.90;92.10;;;;;;4881992;29;20033;-89
2020/12/29 01:36:24;;;;;;;12.07;5.60;;;4.90;92.20;;;;;;4882411;29;20041;-90
2020/12/29 01:38:50;;;;;;;12.53;5.97;;;4.90;92.30;;;;;;4882233;29;20079;-89
2020/12/29 01:41:18;;;;;;;12.50;5.40;;;4.90;92.30;;;;;;4882388;29;20482;-90
2020/12/29 01:43:44;;;;;;;12.43;5.77;;;4.90;92.30;;;;;;4882251;29;20514;-89
2020/12/29 01:46:09;;;;;;;12.17;5.30;;;4.90;92.30;;;;;;4898720;29;20064;-90
2020/12/29 01:48:35;;;;;;;11.83;5.00;;;4.90;92.20;;;;;;4898831;29;20056;-90
2020/12/29 01:51:00;;;;;;;13.73;5.60;;;4.90;92.20;;;;;;4882424;29;20108;-89
2020/12/29 01:53:26;;;;;;;10.93;5.13;;;4.90;92.20;;;;;;4882027;29;20024;-89
2020/12/29 01:55:52;;;;;;;12.33;5.07;;;4.90;92.30;;;;;;4882467;29;20029;-89
2020/12/29 01:58:18;;;;;;;12.60;5.23;;;4.90;92.30;;;;;;4881997;29;20031;-90
2020/12/29 02:00:45;;;;;;;12.03;5.20;;;4.90;92.30;;;;;;4882170;29;20111;-90
2020/12/29 02:03:16;;;;;;;11.00;5.33;;;4.90;92.30;;;;;;4881752;29;20031;-89
2020/12/29 02:05:47;;;;;;;10.60;5.00;;;4.90;92.30;;;;;;4881899;29;20033;-90
2020/12/29 02:08:14;;;;;;;11.97;5.53;;;4.90;92.20;;;;;;4882216;29;20024;-88
2020/12/29 02:10:41;;;;;;;12.27;5.13;;;5.00;92.20;;;;;;4882526;29;20031;-90
2020/12/29 02:13:06;;;;;;;11.30;4.83;;;4.90;92.10;;;;;;4913328;29;20035;-88
2020/12/29 02:15:32;;;;;;;11.63;4.90;;;4.90;92.20;;;;;;4881785;29;20032;-89
2020/12/29 02:17:57;;;;;;;10.93;5.13;;;4.90;92.20;;;;;;4882191;29;20028;-89
2020/12/29 02:20:23;;;;;;;13.53;5.33;;;4.90;92.20;;;;;;4882335;29;20395;-89
2020/12/29 02:22:48;;;;;;;11.37;4.40;;;4.90;92.20;;;;;;4898866;29;20033;-89
2020/12/29 02:25:14;;;;;;;10.47;4.67;;;4.80;92.10;;;;;;4881547;29;20498;-90
2020/12/29 02:27:50;;;;;;;13.00;5.10;;;4.90;92.20;;;;;;4898385;29;20033;-89
2020/12/29 02:30:18;;;;;;;10.53;4.70;;;4.90;92.20;;;;;;4881857;29;20025;-88
2020/12/29 02:32:43;;;;;;;9.43;4.50;;;4.80;92.20;;;;;;4881893;29;20021;-90
2020/12/29 02:35:11;;;;;;;11.47;4.73;;;4.80;92.20;;;;;;4882025;29;20064;-89
2020/12/29 02:37:36;;;;;;;10.87;4.47;;;4.80;92.20;;;;;;4881754;29;20029;-90
2020/12/29 02:40:03;;;;;;;10.70;4.53;;;4.80;92.20;;;;;;4881916;29;20084;-90
2020/12/29 02:42:29;;;;;;;10.20;4.47;;;4.80;92.20;;;;;;4912769;29;20057;-89
2020/12/29 02:44:54;;;;;;;9.07;4.40;;;4.80;92.20;;;;;;4881039;29;20067;-90
2020/12/29 02:47:20;;;;;;;9.47;4.30;;;4.70;92.20;;;;;;4874314;29;20021;-90
2020/12/29 02:49:45;;;;;;;11.90;4.37;;;4.70;92.20;;;;;;4863491;29;20448;-90
2020/12/29 02:52:11;;;;;;;9.87;4.23;;;4.70;92.30;;;;;;4863573;29;20244;-89
2020/12/29 02:54:37;;;;;;;9.53;4.30;;;4.70;92.30;;;;;;4863762;29;20037;-90
2020/12/29 02:57:03;;;;;;;8.80;4.27;;;4.70;92.20;;;;;;4863132;29;20039;-89
2020/12/29 02:59:29;;;;;;;10.80;4.50;;;4.70;92.30;;;;;;4863026;29;20053;-90
2020/12/29 03:01:55;;;;;;;8.83;3.93;;;4.70;92.30;;;;;;4862932;29;20044;-90
2020/12/29 03:04:21;;;;;;;9.53;4.37;;;4.60;91.90;;;;;;4862560;29;20037;-90
2020/12/29 03:06:47;;;;;;;9.00;4.20;;;4.70;92.10;;;;;;4862818;29;20032;-90
2020/12/29 03:09:13;;;;;;;11.43;4.20;;;4.70;92.10;;;;;;4862554;29;20033;-90
2020/12/29 03:11:39;;;;;;;9.13;4.10;;;4.70;92.20;;;;;;4862830;29;20068;-90
2020/12/29 03:14:08;;;;;;;11.40;4.13;;;4.70;92.20;;;;;;4865542;29;20072;-90
2020/12/29 03:16:34;;;;;;;10.18;4.43;;;4.70;92.50;;;;;;4865933;29;20037;-91
2020/12/29 03:19:01;;;;;;;9.90;3.93;;;4.70;92.20;;;;;;4865779;29;20495;-90
2020/12/29 03:21:27;;;;;;;10.57;4.17;;;4.70;92.20;;;;;;4896749;29;20026;-90
2020/12/29 03:23:52;;;;;;;9.93;4.17;;;4.70;92.20;;;;;;4866086;29;20025;-88
2020/12/29 03:26:22;;;;;;;9.50;4.07;;;4.70;92.20;;;;;;4865542;29;20021;-90
2020/12/29 03:28:47;;;;;;;8.85;3.80;;;4.70;92.20;;;;;;4866056;29;20033;-90
2020/12/29 03:31:15;;;;;;;9.67;4.10;;;4.70;92.20;;;;;;4865575;29;20029;-90
2020/12/29 03:33:41;;;;;;;11.57;4.00;;;4.70;92.10;;;;;;4865541;29;20064;-90
2020/12/29 03:36:07;;;;;;;10.23;3.90;;;4.70;92.10;;;;;;4865421;29;20076;-90
2020/12/29 03:38:32;;;;;;;10.47;4.30;;;4.70;92.10;;;;;;4882501;29;20029;-90
2020/12/29 03:40:58;;;;;;;8.13;3.57;;;4.70;92.10;;;;;;4865366;29;20027;-88
2020/12/29 03:43:24;;;;;;;9.77;4.13;;;4.70;92.10;;;;;;4865253;29;20368;-90
2020/12/29 03:45:51;;;;;;;9.80;3.67;;;4.70;92.20;;;;;;4882167;29;20033;-90
2020/12/29 03:48:19;;;;;;;8.60;3.47;;;4.70;92.10;;;;;;4879536;29;20033;-88
2020/12/29 03:50:45;;;;;;;9.13;3.90;;;4.70;92.10;;;;;;4901097;29;20111;-90
2020/12/29 03:53:11;;;;;;;8.43;3.40;;;4.70;92.10;;;;;;4900458;29;20100;-90
2020/12/29 03:55:37;;;;;;;6.87;3.40;;;4.70;92.10;;;;;;4882960;29;20029;-91
2020/12/29 03:58:03;;;;;;;8.57;3.57;;;4.70;92.00;;;;;;4884119;29;20168;-90
2020/12/29 04:00:29;;;;;;;9.47;3.70;;;4.70;92.00;;;;;;4884020;29;20033;-90
2020/12/29 04:02:55;;;;;;;6.70;3.37;;;4.70;92.00;;;;;;4900490;29;20059;-90
2020/12/29 04:05:20;;;;;;;8.30;3.87;;;4.80;92.10;;;;;;4883356;29;20029;-90
2020/12/29 04:07:48;;;;;;;9.47;3.80;;;4.70;92.00;;;;;;4883706;29;20036;-90
2020/12/29 04:10:14;;;;;;;6.60;3.00;;;4.70;92.00;;;;;;4883857;29;20025;-89
2020/12/29 04:12:39;;;;;;;8.47;3.63;;;4.70;92.00;;;;;;4883432;29;20029;-90
2020/12/29 04:15:05;;;;;;;6.37;3.17;;;4.70;92.00;;;;;;4883284;29;20033;-90
2020/12/29 04:17:38;;;;;;;7.03;3.20;;;4.70;92.00;;;;;;4883393;29;20172;-90
2020/12/29 04:20:05;;;;;;;8.30;3.50;;;4.70;92.00;;;;;;4883598;29;20715;-90
2020/12/29 04:22:32;;;;;;;7.43;3.37;;;4.70;92.00;;;;;;4883367;29;20116;-90
2020/12/29 04:24:58;;;;;;;6.20;2.97;;;4.70;91.90;;;;;;4881864;29;20376;-90
2020/12/29 04:27:23;;;;;;;7.73;3.30;;;4.70;92.00;;;;;;4883458;29;20479;-90
2020/12/29 04:29:50;;;;;;;9.20;3.30;;;4.70;91.90;;;;;;4882912;29;20028;-90
2020/12/29 04:32:15;;;;;;;7.00;3.10;;;4.70;91.80;;;;;;4882932;29;20084;-90
2020/12/29 04:34:41;;;;;;;6.43;3.13;;;4.70;91.70;;;;;;4883025;29;20451;-90
2020/12/29 04:37:07;;;;;;;9.07;3.43;;;4.70;91.50;;;;;;4884328;29;20032;-90
2020/12/29 04:39:32;;;;;;;7.47;3.00;;;4.70;91.80;;;;;;4883022;29;20106;-90
2020/12/29 04:42:04;;;;;;;7.40;2.93;;;4.70;91.90;;;;;;4883860;29;20028;-89
2020/12/29 04:44:30;;;;;;;6.93;3.20;;;4.70;91.90;;;;;;4883141;29;20032;-90
2020/12/29 04:46:55;;;;;;;8.47;3.30;;;4.70;91.90;;;;;;4878738;29;20451;-90
2020/12/29 04:49:22;;;;;;;6.90;3.03;;;4.70;92.00;;;;;;4864283;29;20029;-89
2020/12/29 04:51:50;;;;;;;7.13;3.07;;;4.70;92.00;;;;;;4864173;29;20476;-88
2020/12/29 04:54:18;;;;;;;7.40;3.33;;;4.70;92.00;;;;;;4863987;29;20033;-89
2020/12/29 04:56:53;;;;;;;8.17;3.40;;;4.70;91.90;;;;;;4864118;29;20033;-90
2020/12/29 04:59:18;;;;;;;9.20;3.60;;;4.60;92.00;;;;;;4864163;29;20120;-89
2020/12/29 05:01:44;;;;;;;7.93;3.20;;;4.70;92.00;;;;;;4865139;29;20061;-90
2020/12/29 05:04:09;;;;;;;6.60;3.00;;;4.60;91.80;;;;;;4864094;29;20062;-89
2020/12/29 05:06:35;;;;;;;9.93;3.90;;;4.60;92.10;;;;;;4864508;29;20027;-90
2020/12/29 05:09:01;;;;;;;8.07;3.37;;;4.70;91.90;;;;;;4863933;29;20025;-89
2020/12/29 05:11:31;;;;;;;5.53;3.17;;;4.70;91.90;;;;;;4863926;29;20479;-89
2020/12/29 05:13:58;;;;;;;7.70;3.37;;;4.70;91.90;;;;;;4864134;29;20021;-90
2020/12/29 05:16:24;;;;;;;6.93;3.30;;;4.70;91.90;;;;;;4864047;29;20049;-90
2020/12/29 05:18:50;;;;;;;9.57;3.47;;;4.60;91.90;;;;;;4863434;29;20064;-89
2020/12/29 05:21:15;;;;;;;7.03;3.30;;;4.60;91.90;;;;;;4863975;29;20124;-89
2020/12/29 05:23:41;;;;;;;7.33;3.07;;;4.60;91.90;;;;;;4864031;29;20091;-89
2020/12/29 05:26:07;;;;;;;8.53;3.23;;;4.60;92.00;;;;;;4863334;29;20029;-89
2020/12/29 05:28:33;;;;;;;8.83;3.60;;;4.60;91.90;;;;;;4863899;29;20029;-89
2020/12/29 05:31:01;;;;;;;8.47;3.13;;;4.60;92.00;;;;;;4863655;29;20029;-89
2020/12/29 05:33:28;;;;;;;8.83;3.20;;;4.60;92.00;;;;;;4863425;29;20021;-89
2020/12/29 05:35:54;;;;;;;6.33;3.20;;;4.50;92.00;;;;;;4863115;29;20195;-89
2020/12/29 05:38:20;;;;;;;8.90;3.47;;;4.50;92.00;;;;;;4879946;29;20476;-90
2020/12/29 05:40:47;;;;;;;8.97;3.20;;;4.50;92.00;;;;;;4863355;29;20025;-90
2020/12/29 05:43:13;;;;;;;8.67;3.33;;;4.50;92.00;;;;;;4863313;29;20025;-89
2020/12/29 05:45:39;;;;;;;8.73;3.60;;;4.50;92.00;;;;;;4863419;29;20436;-89
2020/12/29 05:48:05;;;;;;;7.97;3.97;;;4.50;92.00;;;;;;4875945;29;20080;-90
2020/12/29 05:50:31;;;;;;;10.40;3.93;;;4.40;92.00;;;;;;4899032;29;20035;-89
2020/12/29 05:53:00;;;;;;;9.00;3.60;;;4.50;92.00;;;;;;4882624;29;20063;-90
2020/12/29 05:55:26;;;;;;;8.07;3.28;;;4.50;92.00;;;;;;4899087;29;20115;-90
2020/12/29 05:58:07;;;;;;;8.93;3.77;;;4.50;92.00;;;;;;4882240;29;20060;-90
2020/12/29 06:00:33;;;;;;;8.63;3.60;;;4.50;92.00;;;;;;4883227;29;20495;-91
2020/12/29 06:03:01;;;;;;;10.70;3.93;;;4.40;91.90;;;;;;4913923;29;20032;-91
2020/12/29 06:05:28;;;;;;;9.87;3.90;;;4.40;91.90;;;;;;4881981;29;20024;-91
2020/12/29 06:07:56;;;;;;;9.30;3.50;;;4.40;92.00;;;;;;4888985;29;20072;-92
2020/12/29 06:10:23;;;;;;;10.43;3.80;;;4.40;92.00;;;;;;4891416;29;20031;-91
2020/12/29 06:13:01;;;;;;;9.80;3.77;;;4.40;92.00;;;;;;4884115;29;20029;-90
2020/12/29 06:15:32;;;;;;;9.30;3.77;;;4.30;91.90;;;;;;4880802;29;20121;-91
2020/12/29 06:18:03;;;;;;;8.00;3.33;;;4.30;91.90;;;;;;4882656;29;20104;-91
2020/12/29 06:20:43;;;;;;;7.57;3.50;;;4.30;91.90;;;;;;4883699;29;20039;-91
2020/12/29 06:23:10;;;;;;;9.10;3.87;;;4.30;91.90;;;;;;4882423;29;20072;-91
2020/12/29 06:25:37;;;;;;;10.97;4.13;;;4.30;92.00;;;;;;4882417;29;20029;-91
2020/12/29 06:28:05;;;;;;;10.00;4.10;;;4.20;92.00;;;;;;4882361;29;20494;-91
2020/12/29 06:30:34;;;;;;;9.93;3.97;;;4.20;92.00;;;;;;4884223;29;20032;-90
2020/12/29 06:33:00;;;;;;;;;;;4.20;92.10;;;;;;4883569;29;20115;-91
2020/12/29 06:35:26;;;;;;;7.67;3.70;;;4.10;92.00;;;;;;4884397;29;19988;-91
2020/12/29 06:37:52;;;;;;;8.63;3.50;;;4.20;92.10;;;;;;4884731;29;20036;-91
2020/12/29 06:40:20;;;;;;;9.93;4.00;;;4.10;92.10;;;;;;4884331;29;20029;-90
2020/12/29 06:42:46;;;;;;;12.37;4.33;;;4.10;92.10;;;;;;4884092;29;20051;-91
2020/12/29 06:45:12;;;;;;;11.90;4.40;;;4.10;92.10;;;;;;4883636;29;20518;-90
2020/12/29 06:47:48;;;;;;;10.43;3.80;;;4.10;92.10;;;;;;4885836;29;20031;-90
2020/12/29 06:50:22;;;;;;;11.77;4.27;;;4.10;92.20;;;;;;4886387;29;20028;-91
2020/12/29 06:53:18;;;;;;;9.23;3.70;;;4.10;92.20;;;;;;4887088;29;20111;-91
2020/12/29 06:55:45;;;;;;;11.30;4.00;;;4.10;92.10;;;;;;4883485;29;20041;-91
2020/12/29 06:58:32;;;;;;;11.30;4.43;;;4.10;92.10;;;;;;4885998;29;20028;-91
2020/12/29 07:01:37;;;;;;;10.53;4.00;;;4.10;92.10;;;;;;4916670;29;20089;-91
2020/12/29 07:04:04;;;;;;;10.20;4.13;;;4.10;92.00;;;;;;4811347;29;20192;-91
2020/12/29 07:06:31;;;;;;;10.67;4.30;;;4.20;92.00;;;;;;4811266;29;20026;-90
2020/12/29 07:09:25;;;;;;;10.30;4.00;;;4.10;92.00;;;;;;4848634;29;20032;-91
2020/12/29 07:12:07;;;;;;;8.40;4.20;;;4.10;91.70;;;;;;4886671;29;20039;-90
2020/12/29 07:14:35;;;;;;;11.00;4.17;;;4.10;92.00;;;;;;4886388;29;20072;-91
2020/12/29 07:17:01;;;;;;;10.93;4.10;;;4.10;91.90;;;;;;4886246;29;20051;-91
2020/12/29 07:19:28;;;;;;;9.73;4.13;;;4.10;92.00;;;;;;4885668;29;20496;-89
2020/12/29 07:21:54;;;;;;;10.77;4.07;;;4.10;92.00;;;;;;4886019;29;20059;-89
2020/12/29 07:24:20;;;;;;;13.03;4.60;;;4.10;91.90;;;;;;4886282;29;20036;-90
2020/12/29 07:26:46;;;;;;;9.63;4.20;;;4.10;92.00;;;;;;4878418;29;20025;-90
2020/12/29 07:29:11;;;;;;;15.23;4.30;;;4.10;92.00;;;;;;4885652;29;20131;-89
2020/12/29 07:31:40;;;;;;;11.43;4.80;;;4.10;92.00;;;;;;4885900;29;20115;-90
2020/12/29 07:34:10;;;;;;;10.70;4.32;;;4.10;92.00;;;;;;4875475;29;20025;-88
2020/12/29 07:36:42;;;;;;;10.37;4.50;;;4.10;91.90;;;;;;4867253;29;20474;-89
2020/12/29 07:39:12;;;;;;;13.50;4.70;;;4.10;91.90;;;;;;4867072;29;20112;-90
2020/12/29 07:41:38;;;;;;;10.97;4.13;;;4.10;91.90;;;;;;4885235;29;20429;-89
2020/12/29 07:44:04;;;;;;;13.40;4.53;;;4.10;91.90;;;;;;4867077;29;20029;-90
2020/12/29 07:46:31;;;;;;;12.80;4.70;;;4.10;91.90;;;;;;4874168;29;20029;-89
2020/12/29 07:48:57;;;;;;;13.80;4.63;;;4.10;91.80;;;;;;4870587;29;20547;-90
2020/12/29 07:51:23;;;;;;;13.80;4.87;;;4.10;91.60;;;;;;4866981;29;20128;-89
2020/12/29 07:53:48;;;;;;;13.63;4.87;;;4.10;91.70;;;;;;4866505;29;20116;-90
2020/12/29 07:56:14;;;;;;;13.87;5.43;;;4.10;91.70;;;;;;4866310;29;20029;-89
2020/12/29 07:58:40;;;;;;;14.33;5.47;;;4.10;91.90;;;;;;4882983;29;20049;-89
2020/12/29 08:01:05;;;;;;;13.47;4.83;;;4.10;91.90;;;;;;4865620;29;20036;-89
2020/12/29 08:03:31;;;;;;;14.40;5.50;;;4.10;91.80;;;;;;4882452;29;20029;-90
2020/12/29 08:05:56;;;;;;;12.80;4.80;;;4.10;91.80;;;;;;4866142;29;20127;-89
2020/12/29 08:08:22;;;;;;;14.43;5.30;;;4.10;91.80;;;;;;4866865;29;20029;-90
2020/12/29 08:10:47;;;;;;;16.27;5.30;;;4.10;91.90;;;;;;4865958;29;20072;-90
2020/12/29 08:13:21;;;;;;;13.80;5.30;;;4.10;91.60;;;;;;4866145;29;20029;-89
2020/12/29 08:15:48;;;;;;;12.67;4.80;;;4.10;91.80;;;;;;4865399;29;20036;-89
2020/12/29 08:18:19;;;;;;;12.53;4.77;;;4.10;91.80;;;;;;4865484;29;20033;-90
2020/12/29 08:20:48;;;;;;;13.90;5.30;;;4.10;91.80;;;;;;4866267;29;20093;-90
2020/12/29 08:23:16;;;;;;;13.97;5.80;;;4.20;91.90;;;;;;4865254;29;20077;-89
2020/12/29 08:25:57;;;;;;;14.10;5.70;;;4.10;91.60;;;;;;4864758;29;20065;-90
2020/12/29 08:28:24;;;;;;;14.67;5.73;;;4.10;91.80;;;;;;4865403;29;20029;-92
2020/12/29 08:30:50;;;;;;;14.63;5.30;;;4.10;91.80;;;;;;4865693;29;20033;-90
2020/12/29 08:33:21;;;;;;;15.67;5.80;;;4.10;91.90;;;;;;4865116;29;20028;-91
2020/12/29 08:35:50;;;;;;;15.53;5.67;;;4.10;91.60;;;;;;4879590;29;20081;-91
2020/12/29 08:38:30;;;;;;;14.93;5.83;;;4.10;91.70;;;;;;4883553;29;20040;-91
2020/12/29 08:41:08;;;;;;;16.90;6.20;;;4.10;91.70;;;;;;4885203;29;20272;-91
2020/12/29 08:43:46;;;;;;;16.33;6.23;;;4.10;91.60;;;;;;4902750;29;20099;-91
2020/12/29 08:46:23;;;;;;;16.10;5.80;;;4.10;91.80;;;;;;4903328;29;20048;-91
2020/12/29 08:48:53;;;;;;;16.20;6.87;;;4.10;91.90;;;;;;4903205;29;20031;-91
2020/12/29 08:51:22;;;;;;;15.57;5.97;;;4.10;91.70;;;;;;4902940;29;20024;-91
2020/12/29 08:53:47;;;;;;;14.88;6.47;;;4.00;91.60;;;;;;4904288;29;20021;-91
2020/12/29 08:56:21;;;;;;;16.63;6.37;;;4.10;91.80;;;;;;4905523;29;20554;-91
2020/12/29 08:58:48;;;;;;;18.13;7.03;;;4.10;91.90;;;;;;4906516;29;20028;-90
2020/12/29 09:01:30;;;;;;;19.17;6.83;;;4.10;91.70;;;;;;4910502;29;20371;-91
2020/12/29 09:03:56;;;;;;;16.30;6.77;;;4.10;91.80;;;;;;4902102;29;20102;-91
2020/12/29 09:06:23;;;;;;;19.57;7.20;;;4.10;91.70;;;;;;4903120;29;20031;-90
2020/12/29 09:08:49;;;;;;;16.80;6.33;;;4.20;91.70;;;;;;4902959;29;20025;-91
2020/12/29 09:11:15;;;;;;;16.93;6.60;;;4.10;91.60;;;;;;4902689;29;20039;-90
2020/12/29 09:14:03;;;;;;;16.37;6.03;;;4.20;91.50;;;;;;4903751;29;20024;-91
2020/12/29 09:16:29;;;;;;;16.57;6.70;;;4.10;91.70;;;;;;4903819;29;20032;-91
2020/12/29 09:18:54;;;;;;;16.67;6.73;;;4.20;91.70;;;;;;4905645;29;20039;-91
2020/12/29 09:21:21;;;;;;;17.10;6.30;;;4.20;91.60;;;;;;4906480;29;20079;-91
2020/12/29 09:24:01;;;;;;;14.90;5.53;;;4.20;91.60;;;;;;4914818;29;20032;-91
2020/12/29 09:26:27;;;;;;;14.20;6.30;;;4.20;91.60;;;;;;4917483;29;20039;-91
2020/12/29 09:28:52;;;;;;;16.57;6.47;;;4.20;91.50;;;;;;4919453;29;20091;-91
2020/12/29 09:31:29;;;;;;;17.77;6.93;;;4.10;91.30;;;;;;4914850;29;20501;-91
2020/12/29 09:33:55;;;;;;;15.67;6.73;;;4.20;91.60;;;;;;4907965;29;20055;-91
2020/12/29 09:36:26;;;;;;;14.93;6.27;;;4.20;91.50;;;;;;4908545;29;20040;-91
2020/12/29 09:38:53;;;;;;;14.87;6.50;;;4.20;91.60;;;;;;4908774;29;20028;-91
2020/12/29 09:41:20;;;;;;;15.63;6.40;;;4.20;91.30;;;;;;4910227;29;20127;-91
2020/12/29 09:43:46;;;;;;;16.37;6.73;;;4.20;91.50;;;;;;4913407;29;20557;-89
2020/12/29 09:46:12;;;;;;;17.73;6.50;;;4.30;91.50;;;;;;4908419;29;20375;-92
2020/12/29 09:48:38;;;;;;;16.37;7.20;;;4.30;91.60;;;;;;4907086;29;20087;-91
2020/12/29 09:51:04;;;;;;;16.20;6.50;;;4.30;91.60;;;;;;4916558;29;20121;-92
2020/12/29 09:53:30;;;;;;;16.23;6.47;;;4.40;91.60;;;;;;4911990;29;20085;-92
2020/12/29 09:55:56;;;;;;;13.87;5.67;;;4.40;91.40;;;;;;4911630;29;20379;-91
2020/12/29 09:58:25;;;;;;;15.63;5.60;;;4.50;91.30;;;;;;4907975;29;20123;-89
2020/12/29 10:00:51;;;;;;;14.82;5.82;;;4.50;91.20;;;;;;4910375;29;20048;-90
2020/12/29 10:03:17;;;;;;;12.37;5.07;;;4.50;91.00;;;;;;4907736;29;20032;-88
2020/12/29 10:05:46;;;;;;;16.60;5.50;;;4.50;91.20;;;;;;4913823;29;20109;-89
2020/12/29 10:08:12;;;;;;;13.85;5.22;;;4.50;91.00;;;;;;4926881;29;20131;-90
2020/12/29 10:10:37;;;;;;;15.00;5.67;;;4.50;91.10;;;;;;4911444;29;20043;-88
2020/12/29 10:13:03;;;;;;;16.27;5.43;;;4.40;90.80;;;;;;4923908;29;20371;-89
2020/12/29 10:15:29;;;;;;;15.67;5.80;;;4.40;91.40;;;;;;4901572;29;20036;-88
2020/12/29 10:17:54;;;;;;;14.90;6.37;;;4.40;91.30;;;;;;4901740;29;20032;-88
2020/12/29 10:20:21;;;;;;;16.73;6.43;;;4.30;91.70;;;;;;4901300;29;20032;-88
2020/12/29 10:22:47;;;;;;;19.60;7.77;;;4.40;91.30;;;;;;4904222;29;20059;-88
2020/12/29 10:25:15;;;;;;;21.43;8.23;;;4.30;91.50;;;;;;4912310;29;20059;-88
2020/12/29 10:27:42;;;;;;;19.23;8.03;;;4.20;91.40;;;;;;4920208;29;20107;-89
2020/12/29 10:30:08;;;;;;;19.27;8.70;;;4.20;91.60;;;;;;4916380;29;20478;-88
2020/12/29 10:32:34;;;;;;;22.27;9.27;;;4.20;91.60;;;;;;4904220;29;20036;-88
2020/12/29 10:34:59;;;;;;;21.10;10.17;;;4.20;91.50;;;;;;4903993;29;20131;-91
2020/12/29 10:37:25;;;;;;;23.20;9.87;;;4.20;91.70;;;;;;4921102;29;20043;-87
2020/12/29 10:39:50;;;;;;;22.63;10.30;;;4.20;91.70;;;;;;4903816;29;20020;-87
2020/12/29 10:42:16;;;;;;;22.97;11.37;;;4.20;91.70;;;;;;4904281;29;20087;-91
2020/12/29 10:44:42;;;;;;;20.77;10.40;;;4.10;91.80;;;;;;4903940;29;20486;-87
2020/12/29 10:47:07;;;;;;;23.20;10.63;;;4.10;91.80;;;;;;4898219;29;20479;-91
2020/12/29 10:49:33;;;;;;;20.37;10.83;;;4.10;91.80;;;;;;4886142;29;20479;-90
2020/12/29 10:51:58;;;;;;;21.97;11.40;;;4.20;91.90;;;;;;4885954;29;20025;-90
2020/12/29 10:54:24;;;;;;;22.23;12.07;;;4.10;91.90;;;;;;4885125;29;20033;-90
2020/12/29 10:56:50;;;;;;;24.07;12.67;;;4.20;91.90;;;;;;4885463;29;20036;-90
2020/12/29 10:59:16;;;;;;;23.57;13.10;;;4.20;91.90;;;;;;4886234;29;20041;-89
2020/12/29 11:01:41;;;;;;;25.10;12.47;;;4.20;92.00;;;;;;4885457;29;20489;-91
2020/12/29 11:04:07;;;;;;;24.43;11.93;;;4.20;92.00;;;;;;4885347;29;20104;-91
2020/12/29 11:06:32;;;;;;;26.13;13.90;;;4.10;92.00;;;;;;4885392;29;20021;-91
2020/12/29 11:08:58;;;;;;;25.53;13.80;;;4.10;92.10;;;;;;4886732;29;20028;-91
2020/12/29 11:11:24;;;;;;;26.33;14.43;;;4.10;92.30;;;;;;4885381;29;20394;-90
2020/12/29 11:13:49;;;;;;;27.87;14.23;;;4.10;92.10;;;;;;4884847;29;20057;-91
2020/12/29 11:16:17;;;;;;;25.03;13.63;;;4.10;92.10;;;;;;4885309;29;20495;-90
2020/12/29 11:18:44;;;;;;;28.33;15.70;;;4.20;92.00;;;;;;4885074;29;20487;-90
2020/12/29 11:21:09;;;;;;;28.93;15.00;;;4.10;92.20;;;;;;4885308;29;20398;-89
2020/12/29 11:23:35;;;;;;;28.97;15.33;;;4.10;92.40;;;;;;4884242;29;20032;-90
2020/12/29 11:26:01;;;;;;;28.30;15.60;;;4.10;92.20;;;;;;4901538;29;20032;-90
2020/12/29 11:28:26;;;;;;;29.43;15.67;;;4.10;92.20;;;;;;4885719;29;20032;-90
2020/12/29 11:30:52;;;;;;;29.27;16.63;;;4.10;92.30;;;;;;4896010;29;20065;-89
2020/12/29 11:33:17;;;;;;;27.80;15.80;;;4.10;92.10;;;;;;4918247;29;20081;-89
2020/12/29 11:35:44;;;;;;;28.60;16.53;;;4.20;92.00;;;;;;4910721;29;20162;-90
2020/12/29 11:38:10;;;;;;;30.80;18.03;;;4.20;92.00;;;;;;4890299;29;20040;-90
2020/12/29 11:40:36;;;;;;;29.97;17.90;;;4.20;92.10;;;;;;4890284;29;20043;-89
2020/12/29 11:43:01;;;;;;;27.37;16.53;;;4.20;92.10;;;;;;4904548;29;20029;-88
2020/12/29 11:45:27;;;;;;;30.00;17.80;;;4.30;92.00;;;;;;4907516;29;20042;-90
2020/12/29 11:47:53;;;;;;;29.73;17.33;;;4.30;91.90;;;;;;4913642;29;20021;-90
2020/12/29 11:50:18;;;;;;;30.13;18.37;;;4.30;91.90;;;;;;4884067;29;20036;-90
2020/12/29 11:52:44;;;;;;;30.07;17.93;;;4.30;91.90;;;;;;4883679;29;20028;-90
2020/12/29 11:55:10;;;;;;;28.73;18.07;;;4.30;91.90;;;;;;4883235;29;20056;-90
2020/12/29 11:57:36;;;;;;;29.27;17.03;;;4.40;92.00;;;;;;4901593;29;20048;-90
2020/12/29 12:00:04;;;;;;;27.60;17.23;;;4.40;92.00;;;;;;4884156;29;20032;-90
2020/12/29 12:02:29;;;;;;;31.17;18.03;;;4.40;92.00;;;;;;4884841;29;20028;-90
2020/12/29 12:04:55;;;;;;;29.03;17.63;;;4.40;91.90;;;;;;4884570;29;20112;-90
2020/12/29 12:07:21;;;;;;;30.43;18.67;;;4.40;92.00;;;;;;4883826;29;20690;-90
2020/12/29 12:09:46;;;;;;;29.90;17.57;;;4.40;92.00;;;;;;4884062;29;20025;-90
2020/12/29 12:12:12;;;;;;;30.93;18.00;;;4.40;92.00;;;;;;4887063;29;20502;-89
2020/12/29 12:14:37;;;;;;;29.90;19.00;;;4.40;91.90;;;;;;4884161;29;20028;-89
2020/12/29 12:17:03;;;;;;;32.50;18.20;;;4.40;92.00;;;;;;4887007;29;20398;-91
2020/12/29 12:19:29;;;;;;;27.60;17.40;;;4.40;91.90;;;;;;4886215;29;20032;-89
2020/12/29 12:21:54;;;;;;;29.70;19.03;;;4.40;92.00;;;;;;4901816;29;20052;-89
2020/12/29 12:24:20;;;;;;;31.47;18.37;;;4.40;92.10;;;;;;4884549;29;20079;-90
2020/12/29 12:26:46;;;;;;;31.03;19.57;;;4.40;92.00;;;;;;4885568;29;20024;-91
2020/12/29 12:29:11;;;;;;;28.87;18.10;;;4.30;92.20;;;;;;4886715;29;20534;-91
2020/12/29 12:31:37;;;;;;;31.67;18.67;;;4.30;92.00;;;;;;4896135;29;20479;-91
2020/12/29 12:34:02;;;;;;;33.67;18.63;;;4.30;92.10;;;;;;4900682;29;20044;-91
2020/12/29 12:36:29;;;;;;;32.50;19.17;;;4.30;92.30;;;;;;4889585;29;20021;-91
2020/12/29 12:38:54;;;;;;;33.23;19.33;;;4.30;92.00;;;;;;4884440;29;20024;-91
2020/12/29 12:41:20;;;;;;;28.57;17.67;;;4.30;92.20;;;;;;4883968;29;20031;-91
2020/12/29 12:43:46;;;;;;;31.63;19.20;;;4.40;92.00;;;;;;4883243;29;20123;-91
2020/12/29 12:46:12;;;;;;;33.50;18.37;;;4.30;92.20;;;;;;4883102;29;20032;-92
2020/12/29 12:48:39;;;;;;;32.63;17.93;;;4.30;92.10;;;;;;4884288;29;20036;-91